createdAt,value
2022-10-13T00:01:21.930Z,10.25
2022-10-13T00:03:52.198Z,10.24
2022-10-13T00:06:26.589Z,10.24
2022-10-13T00:08:56.796Z,10.25
2022-10-13T00:11:28.362Z,10.25
2022-10-13T00:13:59.461Z,10.24
2022-10-13T00:16:31.134Z,10.24
2022-10-13T00:19:00.034Z,10.24
2022-10-13T00:21:28.619Z,10.24
2022-10-13T00:23:56.683Z,10.24
2022-10-13T00:26:25.933Z,10.24
2022-10-13T00:28:55.248Z,10.24
2022-10-13T00:31:26.648Z,10.24
2022-10-13T00:33:55.747Z,10.24
2022-10-13T00:36:25.714Z,10.25
2022-10-13T00:38:54.151Z,10.24
2022-10-13T00:41:22.150Z,10.24
2022-10-13T00:44:00.618Z,10.22
2022-10-13T00:46:37.032Z,10.23
2022-10-13T00:49:09.838Z,10.23
2022-10-13T00:51:42.168Z,10.23
2022-10-13T00:54:14.104Z,10.23
2022-10-13T00:56:44.211Z,10.25
2022-10-13T00:59:23.368Z,10.25
2022-10-13T01:01:56.175Z,10.22
2022-10-13T01:04:33.995Z,10.24
2022-10-13T01:07:02.926Z,10.24
2022-10-13T01:09:37.586Z,10.24
2022-10-13T01:12:22.400Z,10.26
2022-10-13T01:15:21.259Z,10.27
2022-10-13T01:17:49.186Z,10.26
2022-10-13T01:20:35.920Z,10.26
2022-10-13T01:23:35.167Z,10.25
2022-10-13T01:26:41.757Z,10.23
2022-10-13T01:29:47.037Z,10.24
2022-10-13T01:32:31.344Z,10.24
2022-10-13T01:35:29.053Z,10.21
2022-10-13T01:38:09.517Z,10.19
2022-10-13T01:41:10.785Z,10.19
2022-10-13T01:43:49.051Z,10.18
2022-10-13T01:46:26.362Z,10.17
2022-10-13T01:48:58.866Z,10.20
2022-10-13T01:51:30.246Z,10.20
2022-10-13T01:53:58.150Z,10.20
2022-10-13T01:56:26.490Z,10.23
2022-10-13T01:58:58.416Z,10.28
2022-10-13T02:01:51.615Z,10.29
2022-10-13T02:04:37.258Z,10.30
2022-10-13T02:07:09.887Z,10.31
2022-10-13T02:09:48.459Z,10.31
2022-10-13T02:12:27.869Z,10.31
2022-10-13T02:14:57.695Z,10.25
2022-10-13T02:17:27.963Z,10.30
2022-10-13T02:19:56.681Z,10.31
2022-10-13T02:22:31.720Z,10.33
2022-10-13T02:25:00.804Z,10.36
2022-10-13T02:27:29.154Z,10.39
2022-10-13T02:29:57.693Z,10.42
2022-10-13T02:32:30.547Z,10.48
2022-10-13T02:34:58.621Z,10.47
2022-10-13T02:37:26.795Z,10.47
2022-10-13T02:39:54.730Z,10.46
2022-10-13T02:42:23.560Z,10.49
2022-10-13T02:44:56.570Z,10.50
2022-10-13T02:47:24.851Z,10.54
2022-10-13T02:49:53.497Z,10.53
2022-10-13T02:52:21.744Z,10.53
2022-10-13T02:54:49.894Z,10.51
2022-10-13T02:57:17.952Z,10.49
2022-10-13T02:59:46.048Z,10.46
2022-10-13T03:02:14.446Z,10.46
2022-10-13T03:04:42.347Z,10.45
2022-10-13T03:07:10.237Z,10.42
2022-10-13T03:09:39.255Z,10.40
2022-10-13T03:12:07.764Z,10.41
2022-10-13T03:14:37.368Z,10.40
2022-10-13T03:17:08.743Z,10.41
2022-10-13T03:19:39.437Z,10.42
2022-10-13T03:22:08.336Z,10.45
2022-10-13T03:24:36.332Z,10.45
2022-10-13T03:27:04.255Z,10.46
2022-10-13T03:29:32.563Z,10.44
2022-10-13T03:32:00.423Z,10.47
2022-10-13T03:34:28.291Z,10.49
2022-10-13T03:36:57.894Z,10.48
2022-10-13T03:39:25.950Z,10.50
2022-10-13T03:41:53.823Z,10.53
2022-10-13T03:44:22.177Z,10.55
2022-10-13T03:46:50.234Z,10.58
2022-10-13T03:49:19.030Z,10.62
2022-10-13T03:51:47.661Z,10.67
2022-10-13T03:54:16.261Z,10.69
2022-10-13T03:56:45.999Z,10.72
2022-10-13T03:59:16.687Z,10.80
2022-10-13T04:01:45.802Z,10.90
2022-10-13T04:04:13.942Z,10.94
2022-10-13T04:06:42.827Z,10.97
2022-10-13T04:09:11.171Z,11.02
2022-10-13T04:11:39.088Z,11.06
2022-10-13T04:14:07.830Z,11.14
2022-10-13T04:16:35.658Z,11.20
2022-10-13T04:19:06.366Z,11.25
2022-10-13T04:21:35.510Z,11.28
2022-10-13T04:24:04.509Z,11.30
2022-10-13T04:26:35.305Z,11.32
2022-10-13T04:29:08.546Z,11.32
2022-10-13T04:31:40.150Z,11.30
2022-10-13T04:34:08.658Z,11.33
2022-10-13T04:36:37.093Z,11.33
2022-10-13T04:39:05.378Z,11.38
2022-10-13T04:41:34.469Z,11.42
2022-10-13T04:44:05.477Z,11.41
2022-10-13T04:46:34.185Z,11.36
2022-10-13T04:49:04.907Z,11.42
2022-10-13T04:51:33.951Z,11.47
2022-10-13T04:54:03.254Z,11.50
2022-10-13T04:56:32.341Z,11.50
2022-10-13T04:59:07.992Z,11.55
2022-10-13T05:01:36.326Z,11.57
2022-10-13T05:04:07.926Z,11.52
2022-10-13T05:07:05.419Z,11.45
2022-10-13T05:09:29.835Z,11.43
2022-10-13T05:11:57.894Z,11.48
2022-10-13T05:14:26.080Z,11.42
2022-10-13T05:16:54.125Z,11.46
2022-10-13T05:19:22.266Z,11.48
2022-10-13T05:21:51.013Z,11.45
2022-10-13T05:24:22.707Z,11.48
2022-10-13T05:26:50.689Z,11.54
2022-10-13T05:29:21.546Z,11.55
2022-10-13T05:31:54.612Z,11.54
2022-10-13T05:34:22.761Z,11.53
2022-10-13T05:36:50.902Z,11.47
2022-10-13T05:39:19.142Z,11.48
2022-10-13T05:41:47.344Z,11.53
2022-10-13T05:44:21.023Z,11.57
2022-10-13T05:46:57.115Z,11.59
2022-10-13T05:49:25.584Z,11.58
2022-10-13T05:51:57.578Z,11.58
2022-10-13T05:54:33.941Z,11.60
2022-10-13T05:57:13.952Z,11.65
2022-10-13T05:59:51.338Z,11.70
2022-10-13T06:02:23.279Z,11.69
2022-10-13T06:04:56.009Z,11.66
2022-10-13T06:07:24.964Z,11.70
2022-10-13T06:09:57.458Z,11.71
2022-10-13T06:12:26.077Z,11.75
2022-10-13T06:14:54.633Z,11.77
2022-10-13T06:17:23.352Z,11.76
2022-10-13T06:19:51.459Z,11.78
2022-10-13T06:22:19.837Z,11.79
2022-10-13T06:24:48.610Z,11.83
2022-10-13T06:27:17.694Z,11.87
2022-10-13T06:29:47.311Z,11.81
2022-10-13T06:32:15.918Z,11.79
2022-10-13T06:34:44.415Z,11.70
2022-10-13T06:37:12.621Z,11.69
2022-10-13T06:39:42.710Z,11.67
2022-10-13T06:42:11.996Z,11.65
2022-10-13T06:44:43.178Z,11.60
2022-10-13T06:47:11.797Z,11.52
2022-10-13T06:49:39.778Z,11.54
2022-10-13T06:52:09.867Z,11.47
2022-10-13T06:54:38.997Z,11.49
2022-10-13T06:57:07.475Z,11.52
2022-10-13T06:59:36.193Z,11.58
2022-10-13T07:02:07.448Z,11.64
2022-10-13T07:04:35.799Z,11.67
2022-10-13T07:07:04.605Z,11.73
2022-10-13T07:09:32.783Z,11.79
2022-10-13T07:12:01.238Z,11.81
2022-10-13T07:14:30.261Z,11.87
2022-10-13T07:16:59.600Z,11.88
2022-10-13T07:19:28.052Z,11.94
2022-10-13T07:21:58.136Z,12.01
2022-10-13T07:24:29.887Z,12.05
2022-10-13T07:26:58.084Z,12.01
2022-10-13T07:29:27.311Z,12.07
2022-10-13T07:31:56.856Z,12.16
2022-10-13T07:34:25.226Z,12.16
2022-10-13T07:36:53.915Z,12.22
2022-10-13T07:39:22.397Z,12.26
2022-10-13T07:41:51.397Z,12.22
2022-10-13T07:44:19.880Z,12.30
2022-10-13T07:46:49.240Z,12.35
2022-10-13T07:49:17.354Z,12.45
2022-10-13T07:51:45.495Z,12.48
2022-10-13T07:54:14.934Z,12.49
2022-10-13T07:56:43.408Z,12.51
2022-10-13T07:59:13.752Z,12.57
2022-10-13T08:01:43.216Z,12.62
2022-10-13T08:04:12.171Z,12.64
2022-10-13T08:06:41.941Z,12.73
2022-10-13T08:09:12.219Z,12.82
2022-10-13T08:11:42.628Z,12.90
2022-10-13T08:14:14.045Z,12.93
2022-10-13T08:16:48.639Z,13.00
2022-10-13T08:19:22.282Z,12.88
2022-10-13T08:21:58.259Z,12.95
2022-10-13T08:24:28.756Z,12.97
2022-10-13T08:26:57.204Z,12.97
2022-10-13T08:29:25.493Z,12.91
2022-10-13T08:31:59.652Z,12.87
2022-10-13T08:34:28.136Z,12.90
2022-10-13T08:36:57.499Z,12.96
2022-10-13T08:39:25.977Z,13.01
2022-10-13T08:41:59.074Z,13.06
2022-10-13T08:45:15.799Z,13.06
2022-10-13T08:47:45.577Z,13.08
2022-10-13T08:50:26.596Z,13.02
2022-10-13T08:53:51.507Z,13.06
2022-10-13T08:56:26.707Z,13.13
2022-10-13T08:58:57.181Z,13.13
2022-10-13T09:01:30.967Z,13.23
2022-10-13T09:04:18.073Z,13.29
2022-10-13T09:07:04.598Z,13.33
2022-10-13T09:13:41.566Z,13.25
2022-10-13T09:14:01.443Z,13.29
2022-10-13T09:16:47.351Z,13.39
2022-10-13T09:19:36.865Z,13.42
2022-10-13T09:22:16.747Z,13.35
2022-10-13T09:24:47.237Z,13.37
2022-10-13T09:27:17.508Z,13.44
2022-10-13T09:29:49.022Z,13.56
2022-10-13T09:32:21.453Z,13.71
2022-10-13T09:34:51.616Z,13.85
2022-10-13T09:37:24.545Z,13.97
2022-10-13T09:40:21.727Z,14.04
2022-10-13T09:42:54.116Z,14.16
2022-10-13T09:45:26.379Z,14.19
2022-10-13T09:48:12.178Z,14.30
2022-10-13T09:50:54.065Z,14.42
2022-10-13T09:53:42.042Z,14.49
2022-10-13T09:56:24.321Z,14.51
2022-10-13T09:59:07.760Z,14.43
2022-10-13T10:01:55.339Z,14.41
2022-10-13T10:07:30.502Z,14.78
2022-10-13T10:10:39.063Z,14.94
2022-10-13T10:13:15.698Z,15.13
2022-10-13T10:16:06.342Z,15.18
2022-10-13T10:18:35.293Z,15.40
2022-10-13T10:21:43.636Z,15.29
2022-10-13T10:24:23.703Z,15.55
2022-10-13T10:27:08.425Z,15.78
2022-10-13T10:29:58.633Z,15.84
2022-10-13T10:33:03.388Z,16.13
2022-10-13T10:36:04.328Z,16.30
2022-10-13T10:38:35.916Z,16.39
2022-10-13T10:41:16.705Z,16.43
2022-10-13T10:44:23.329Z,16.39
2022-10-13T10:46:59.639Z,16.35
2022-10-13T10:49:40.871Z,16.23
2022-10-13T10:52:18.275Z,15.98
2022-10-13T10:55:16.698Z,16.06
2022-10-13T10:58:18.968Z,15.98
2022-10-13T11:01:06.020Z,15.68
2022-10-13T11:04:22.537Z,15.66
2022-10-13T11:06:51.837Z,15.63
2022-10-13T11:09:42.234Z,15.68
2022-10-13T11:12:21.315Z,15.57
2022-10-13T11:15:13.817Z,15.59
2022-10-13T11:17:45.445Z,15.63
2022-10-13T11:20:18.298Z,15.64
2022-10-13T11:22:58.558Z,15.44
2022-10-13T11:25:35.990Z,15.50
2022-10-13T11:28:26.815Z,15.52
2022-10-13T11:31:17.792Z,15.58
2022-10-13T11:33:48.563Z,15.66
2022-10-13T11:36:32.573Z,15.66
2022-10-13T11:39:20.832Z,15.70
2022-10-13T11:42:21.817Z,15.69
2022-10-13T11:44:55.885Z,15.88
2022-10-13T11:47:45.051Z,15.94
2022-10-13T11:50:41.178Z,16.20
2022-10-13T11:53:18.808Z,16.34
2022-10-13T11:55:57.576Z,16.48
2022-10-13T11:58:43.305Z,16.53
2022-10-13T12:01:16.635Z,16.44
2022-10-13T12:03:47.662Z,16.47
2022-10-13T12:06:35.663Z,16.62
2022-10-13T12:09:25.298Z,16.50
2022-10-13T12:12:21.272Z,16.70
2022-10-13T12:14:59.782Z,16.81
2022-10-13T12:17:37.016Z,16.70
2022-10-13T12:20:29.198Z,16.78
2022-10-13T12:23:00.510Z,16.93
2022-10-13T12:25:31.841Z,17.00
2022-10-13T12:28:10.677Z,17.06
2022-10-13T12:30:39.505Z,16.99
2022-10-13T12:33:39.376Z,17.42
2022-10-13T12:36:20.102Z,18.16
2022-10-13T12:38:57.323Z,18.45
2022-10-13T12:41:38.634Z,18.53
2022-10-13T12:44:23.322Z,18.79
2022-10-13T12:46:55.751Z,18.93
2022-10-13T12:49:29.428Z,18.88
2022-10-13T12:52:17.826Z,18.70
2022-10-13T12:54:55.995Z,18.43
2022-10-13T12:57:38.092Z,18.72
2022-10-13T13:00:19.637Z,19.10
2022-10-13T13:02:59.929Z,19.25
2022-10-13T13:05:40.524Z,19.06
2022-10-13T13:08:30.088Z,19.03
2022-10-13T13:11:07.918Z,19.01
2022-10-13T13:13:36.397Z,18.88
2022-10-13T13:16:21.216Z,18.91
2022-10-13T13:18:51.432Z,19.11
2022-10-13T13:21:20.693Z,19.19
2022-10-13T13:23:52.993Z,19.58
2022-10-13T13:26:24.157Z,20.01
2022-10-13T13:28:57.399Z,19.75
2022-10-13T13:31:26.503Z,19.28
2022-10-13T13:33:55.217Z,18.88
2022-10-13T13:36:27.206Z,18.55
2022-10-13T13:38:56.098Z,18.32
2022-10-13T13:41:31.063Z,18.09
2022-10-13T13:43:59.570Z,17.70
2022-10-13T13:46:29.196Z,17.65
2022-10-13T13:48:59.637Z,17.52
2022-10-13T13:51:29.283Z,17.46
2022-10-13T13:53:58.433Z,17.26
2022-10-13T13:56:27.212Z,17.02
2022-10-13T13:58:59.917Z,16.89
2022-10-13T14:01:28.518Z,16.74
2022-10-13T14:03:56.866Z,16.86
2022-10-13T14:06:25.195Z,16.91
2022-10-13T14:08:55.061Z,16.75
2022-10-13T14:11:23.277Z,16.47
2022-10-13T14:13:54.858Z,16.96
2022-10-13T14:16:29.010Z,17.89
2022-10-13T14:18:59.972Z,18.58
2022-10-13T14:21:30.815Z,18.89
2022-10-13T14:23:59.042Z,19.52
2022-10-13T14:26:27.473Z,19.89
2022-10-13T14:28:57.464Z,20.03
2022-10-13T14:31:25.980Z,20.10
2022-10-13T14:33:54.505Z,19.82
2022-10-13T14:36:25.475Z,19.79
2022-10-13T14:38:55.112Z,19.66
2022-10-13T14:41:23.958Z,19.57
2022-10-13T14:43:56.288Z,19.43
2022-10-13T14:46:25.573Z,19.53
2022-10-13T14:48:56.565Z,19.46
2022-10-13T14:51:25.349Z,19.57
2022-10-13T14:53:53.861Z,19.68
2022-10-13T14:56:32.981Z,19.67
2022-10-13T14:59:06.398Z,19.27
2022-10-13T15:01:42.235Z,18.83
2022-10-13T15:04:12.807Z,18.38
2022-10-13T15:06:41.981Z,18.00
2022-10-13T15:09:10.779Z,17.58
2022-10-13T15:11:39.512Z,17.12
2022-10-13T15:14:07.864Z,16.81
2022-10-13T15:16:38.622Z,16.53
2022-10-13T15:19:07.408Z,16.27
2022-10-13T15:21:35.769Z,16.04
2022-10-13T15:24:04.828Z,15.83
2022-10-13T15:26:37.052Z,15.67
2022-10-13T15:29:14.003Z,15.57
2022-10-13T15:31:42.174Z,15.41
2022-10-13T15:34:10.387Z,15.36
2022-10-13T15:36:38.742Z,15.27
2022-10-13T15:39:09.510Z,15.17
2022-10-13T15:41:37.708Z,15.05
2022-10-13T15:44:06.075Z,14.95
2022-10-13T15:46:34.074Z,14.86
2022-10-13T15:49:02.728Z,14.76
2022-10-13T15:51:33.804Z,14.66
2022-10-13T15:54:02.973Z,14.51
2022-10-13T15:56:34.461Z,14.46
2022-10-13T15:59:08.293Z,14.38
2022-10-13T16:01:40.586Z,14.29
2022-10-13T16:04:20.139Z,14.18
2022-10-13T16:06:50.673Z,14.10
2022-10-13T16:09:24.046Z,14.06
2022-10-13T16:11:54.393Z,13.98
2022-10-13T16:14:22.373Z,13.96
2022-10-13T16:16:50.352Z,13.93
2022-10-13T16:19:18.377Z,13.90
2022-10-13T16:21:55.374Z,13.87
2022-10-13T16:24:23.825Z,13.82
2022-10-13T16:26:52.005Z,13.76
2022-10-13T16:29:20.167Z,13.71
2022-10-13T16:31:48.371Z,13.67
2022-10-13T16:34:16.363Z,13.62
2022-10-13T16:36:44.527Z,13.57
2022-10-13T16:39:12.760Z,13.51
2022-10-13T16:41:42.428Z,13.41
2022-10-13T16:44:10.728Z,13.31
2022-10-13T16:46:38.664Z,13.25
2022-10-13T16:49:06.896Z,13.18
2022-10-13T16:51:34.978Z,13.09
2022-10-13T16:54:04.712Z,13.03
2022-10-13T16:56:33.535Z,12.95
2022-10-13T16:59:07.189Z,12.88
2022-10-13T17:01:38.632Z,12.80
2022-10-13T17:04:07.998Z,12.70
2022-10-13T17:06:38.820Z,12.68
2022-10-13T17:09:11.410Z,12.63
2022-10-13T17:11:44.145Z,12.60
2022-10-13T17:14:12.227Z,12.56
2022-10-13T17:16:40.866Z,12.53
2022-10-13T17:19:11.439Z,12.51
2022-10-13T17:21:39.671Z,12.48
2022-10-13T17:24:09.791Z,12.46
2022-10-13T17:26:39.884Z,12.38
2022-10-13T17:29:08.164Z,12.37
2022-10-13T17:31:36.658Z,12.32
2022-10-13T17:34:08.740Z,12.25
2022-10-13T17:36:44.460Z,12.18
2022-10-13T17:39:12.679Z,12.16
2022-10-13T17:41:43.994Z,12.15
2022-10-13T17:44:12.077Z,12.12
2022-10-13T17:46:42.995Z,12.09
2022-10-13T17:49:12.541Z,12.06
2022-10-13T17:51:46.569Z,12.04
2022-10-13T17:54:16.686Z,12.01
2022-10-13T17:56:46.601Z,11.95
2022-10-13T17:59:16.271Z,11.95
2022-10-13T18:01:47.840Z,11.97
2022-10-13T18:04:19.408Z,11.94
2022-10-13T18:06:47.630Z,11.89
2022-10-13T18:09:24.452Z,11.83
2022-10-13T18:11:55.062Z,11.75
2022-10-13T18:14:25.018Z,11.68
2022-10-13T18:16:54.166Z,11.57
2022-10-13T18:19:22.677Z,11.47
2022-10-13T18:21:52.968Z,11.41
2022-10-13T18:24:21.904Z,11.40
2022-10-13T18:26:50.146Z,11.41
2022-10-13T18:29:18.843Z,11.40
2022-10-13T18:31:47.262Z,11.40
2022-10-13T18:34:19.862Z,11.38
2022-10-13T18:36:53.142Z,11.36
2022-10-13T18:39:25.247Z,11.33
2022-10-13T18:41:57.880Z,11.32
2022-10-13T18:44:36.568Z,11.30
2022-10-13T18:47:04.818Z,11.25
2022-10-13T18:49:33.921Z,11.23
2022-10-13T18:52:03.388Z,11.21
2022-10-13T18:54:31.813Z,11.22
2022-10-13T18:57:00.718Z,11.22
2022-10-13T18:59:28.834Z,11.18
2022-10-13T19:01:59.985Z,11.11
2022-10-13T19:04:28.310Z,11.07
2022-10-13T19:06:56.268Z,11.06
2022-10-13T19:09:27.969Z,11.03
2022-10-13T19:11:57.251Z,11.02
2022-10-13T19:14:26.869Z,11.00
2022-10-13T19:17:00.878Z,10.97
2022-10-13T19:19:35.275Z,10.94
2022-10-13T19:22:04.122Z,10.91
2022-10-13T19:24:33.275Z,10.90
2022-10-13T19:27:03.464Z,10.86
2022-10-13T19:29:32.898Z,10.84
2022-10-13T19:32:05.090Z,10.82
2022-10-13T19:34:33.543Z,10.79
2022-10-13T19:37:03.572Z,10.77
2022-10-13T19:39:35.814Z,10.75
2022-10-13T19:42:05.516Z,10.71
2022-10-13T19:44:33.859Z,10.67
2022-10-13T19:47:01.953Z,10.66
2022-10-13T19:49:30.535Z,10.61
2022-10-13T19:51:58.741Z,10.52
2022-10-13T19:54:33.023Z,10.42
2022-10-13T19:57:02.685Z,10.37
2022-10-13T19:59:32.876Z,10.34
2022-10-13T20:02:01.134Z,10.31
2022-10-13T20:04:29.157Z,10.31
2022-10-13T20:06:57.348Z,10.27
2022-10-13T20:09:25.284Z,10.30
2022-10-13T20:11:54.446Z,10.31
2022-10-13T20:14:24.412Z,10.32
2022-10-13T20:16:53.490Z,10.26
2022-10-13T20:19:21.457Z,10.21
2022-10-13T20:21:53.189Z,10.17
2022-10-13T20:24:24.531Z,10.14
2022-10-13T20:26:54.201Z,10.10
2022-10-13T20:29:23.813Z,10.06
2022-10-13T20:31:52.705Z,10.04
2022-10-13T20:34:23.086Z,10.05
2022-10-13T20:36:51.607Z,10.05
2022-10-13T20:39:20.664Z,10.02
2022-10-13T20:41:48.891Z,10.02
2022-10-13T20:44:18.556Z,10.03
2022-10-13T20:46:46.709Z,10.03
2022-10-13T20:49:15.671Z,10.03
2022-10-13T20:51:45.945Z,10.01
2022-10-13T20:54:15.916Z,10.02
2022-10-13T20:56:49.701Z,10.04
2022-10-13T20:59:17.891Z,10.15
2022-10-13T21:01:46.337Z,10.20
2022-10-13T21:04:14.316Z,10.27
2022-10-13T21:06:42.893Z,10.35
2022-10-13T21:09:11.428Z,10.38
2022-10-13T21:11:42.028Z,10.46
2022-10-13T21:14:10.869Z,10.53
2022-10-13T21:16:42.224Z,10.59
2022-10-13T21:19:10.832Z,10.57
2022-10-13T21:21:39.246Z,10.57
2022-10-13T21:24:08.985Z,10.60
2022-10-13T21:26:41.284Z,10.61
2022-10-13T21:29:15.542Z,10.66
2022-10-13T21:31:43.682Z,10.69
2022-10-13T21:34:12.713Z,10.74
2022-10-13T21:36:44.614Z,10.78
2022-10-13T21:39:14.755Z,10.81
2022-10-13T21:41:43.613Z,10.87
2022-10-13T21:44:14.444Z,10.93
2022-10-13T21:46:42.434Z,10.95
2022-10-13T21:49:10.643Z,11.00
2022-10-13T21:51:39.998Z,10.99
2022-10-13T21:54:11.140Z,10.96
2022-10-13T21:56:40.575Z,10.90
2022-10-13T21:59:13.442Z,10.73
2022-10-13T22:01:42.858Z,10.75
2022-10-13T22:04:15.820Z,10.78
2022-10-13T22:06:44.305Z,10.74
2022-10-13T22:09:12.869Z,10.79
2022-10-13T22:11:41.458Z,10.80
2022-10-13T22:14:12.357Z,10.78
2022-10-13T22:16:46.738Z,10.81
2022-10-13T22:19:17.499Z,10.85
2022-10-13T22:21:48.321Z,10.86
2022-10-13T22:24:18.905Z,10.83
2022-10-13T22:26:48.789Z,10.69
2022-10-13T22:29:20.536Z,10.70
2022-10-13T22:31:50.461Z,10.65
2022-10-13T22:34:18.632Z,10.64
2022-10-13T22:36:46.621Z,10.68
2022-10-13T22:39:15.722Z,10.73
2022-10-13T22:41:44.545Z,10.71
2022-10-13T22:44:13.716Z,10.76
2022-10-13T22:46:43.183Z,10.81
2022-10-13T22:49:15.344Z,10.77
2022-10-13T22:51:43.457Z,10.76
2022-10-13T22:54:11.533Z,10.80
2022-10-13T22:56:42.917Z,10.85
2022-10-13T22:59:13.980Z,10.90
2022-10-13T23:01:42.001Z,10.92
2022-10-13T23:04:11.513Z,10.93
2022-10-13T23:06:39.908Z,10.90
2022-10-13T23:09:13.927Z,10.92
2022-10-13T23:11:41.976Z,10.81
2022-10-13T23:14:12.146Z,10.73
2022-10-13T23:16:40.518Z,10.71
2022-10-13T23:19:09.033Z,10.73
2022-10-13T23:21:38.016Z,10.76
2022-10-13T23:24:07.280Z,10.77
2022-10-13T23:26:35.343Z,10.75
2022-10-13T23:29:04.340Z,10.67
2022-10-13T23:31:33.742Z,10.68
2022-10-13T23:34:02.135Z,10.66
2022-10-13T23:36:32.005Z,10.68
2022-10-13T23:39:03.910Z,10.70
2022-10-13T23:41:34.065Z,10.68
2022-10-13T23:44:02.428Z,10.67
2022-10-13T23:46:31.446Z,10.61
2022-10-13T23:49:00.684Z,10.56
2022-10-13T23:51:28.685Z,10.57
2022-10-13T23:53:56.763Z,10.57
2022-10-13T23:56:25.416Z,10.59
2022-10-13T23:58:53.515Z,10.62
